Skill-test PPL(A)

Flight Examinator Sylvain vond “Bart goed getraind en goed geslaagd”. Het hele team van www.vliegschool-hilversum.nl feliciteert Bart dus hartelijk met zijn geslaagde Skill-test voor het PPL(A)-SEP! Het was een mooie CAVOK dag, die 22e juli 2019: METAR EHAM 221425Z 26015KT 230V290 9999 FEW030 26/17 Q1022 NOSIG=

Bart zag zijn examen “gewoon als een lesvlucht waarin hij moest laten zien wat hij geleerd heeft”. Nou dat is dus gelukt! En inderdaad, je vliegbrevet halen is een belangrijke stap in je vliegerscarrière die nu pas echt begint! De aanvraag voor een gelijkstelling in de US gaat a.s.a.p. de deur uit voor nieuwe vliegavonturen overseas. Lees meer EU naar FAA gelijkstelling.